createdAt,value
2018-09-12T00:01:23.167Z,20.48
2018-09-12T00:03:49.849Z,20.40
2018-09-12T00:06:16.563Z,20.45
2018-09-12T00:08:49.793Z,20.63
2018-09-12T00:11:16.582Z,20.64
2018-09-12T00:13:44.089Z,20.57
2018-09-12T00:16:10.976Z,20.52
2018-09-12T00:18:38.966Z,20.40
2018-09-12T00:21:06.014Z,20.29
2018-09-12T00:23:33.783Z,20.50
2018-09-12T00:28:33.039Z,20.80
2018-09-12T00:30:59.976Z,20.93
2018-09-12T00:33:27.908Z,20.71
2018-09-12T00:40:59.727Z,20.77
2018-09-12T00:43:26.877Z,21.04
2018-09-12T00:45:53.619Z,20.92
2018-09-12T00:48:21.063Z,20.91
2018-09-12T00:50:49.032Z,20.85
2018-09-12T00:53:17.436Z,20.70
2018-09-12T00:55:48.095Z,20.54
2018-09-12T00:58:16.573Z,20.52
2018-09-12T01:00:44.404Z,20.21
2018-09-12T01:05:43.180Z,20.34
2018-09-12T01:08:11.987Z,20.19
2018-09-12T01:10:38.858Z,20.13
2018-09-12T01:13:08.964Z,20.08
2018-09-12T01:15:38.108Z,20.03
2018-09-12T01:18:07.162Z,20.20
2018-09-12T01:23:06.997Z,19.67
2018-09-12T01:25:33.968Z,19.75
2018-09-12T01:28:02.582Z,19.96
2018-09-12T01:30:31.064Z,20.04
2018-09-12T01:32:57.619Z,20.34
2018-09-12T01:35:25.286Z,20.48
2018-09-12T01:37:58.824Z,20.08
2018-09-12T01:40:26.994Z,19.95
2018-09-12T01:42:54.236Z,20.00
2018-09-12T01:45:22.027Z,20.04
2018-09-12T01:47:50.355Z,19.85
2018-09-12T01:50:17.919Z,19.89
2018-09-12T01:52:47.032Z,19.97
2018-09-12T01:55:13.768Z,19.87
2018-09-12T01:57:40.771Z,19.57
2018-09-12T02:00:08.640Z,19.48
2018-09-12T02:02:37.771Z,19.80
2018-09-12T02:05:06.658Z,19.75
2018-09-12T02:07:34.351Z,19.71
2018-09-12T02:10:02.800Z,19.60
2018-09-12T02:12:30.277Z,19.67
2018-09-12T02:14:57.599Z,19.80
2018-09-12T02:17:26.745Z,19.76
2018-09-12T02:19:54.252Z,19.61
2018-09-12T02:24:53.517Z,19.68
2018-09-12T02:27:21.235Z,19.70
2018-09-12T02:29:49.616Z,19.53
2018-09-12T02:32:18.709Z,19.78
2018-09-12T02:34:46.551Z,19.51
2018-09-12T02:37:15.521Z,19.58
2018-09-12T02:39:44.210Z,19.54
2018-09-12T02:42:11.635Z,19.65
2018-09-12T02:44:39.582Z,19.52
2018-09-12T02:47:09.147Z,19.90
2018-09-12T02:49:37.138Z,19.58
2018-09-12T02:52:04.851Z,19.54
2018-09-12T02:54:34.121Z,19.30
2018-09-12T02:57:01.646Z,19.10
2018-09-12T02:59:28.891Z,18.95
2018-09-12T03:01:56.964Z,18.90
2018-09-12T03:09:27.994Z,18.97
2018-09-12T03:11:55.710Z,18.87
2018-09-12T03:14:25.536Z,18.94
2018-09-12T03:21:56.275Z,18.53
2018-09-12T03:24:23.213Z,18.66
2018-09-12T03:26:51.280Z,18.49
2018-09-12T03:29:18.849Z,18.81
2018-09-12T03:31:46.498Z,18.61
2018-09-12T03:34:13.457Z,18.52
2018-09-12T03:36:40.457Z,18.61
2018-09-12T03:39:08.224Z,18.32
2018-09-12T03:41:37.780Z,18.65
2018-09-12T03:46:37.354Z,18.82
2018-09-12T03:49:05.038Z,18.49
2018-09-12T03:51:32.732Z,18.82
2018-09-12T03:53:59.745Z,18.47
2018-09-12T03:56:26.642Z,18.50
2018-09-12T03:58:53.857Z,18.53
2018-09-12T04:04:00.117Z,18.47
2018-09-12T04:06:30.263Z,18.60
2018-09-12T04:08:56.812Z,18.42
2018-09-12T04:11:24.956Z,18.52
2018-09-12T04:13:54.183Z,18.57
2018-09-12T04:16:23.265Z,18.55
2018-09-12T04:18:52.378Z,18.64
2018-09-12T04:21:19.066Z,18.69
2018-09-12T04:23:47.369Z,18.82
2018-09-12T04:26:16.314Z,18.90
2018-09-12T04:28:43.544Z,18.70
2018-09-12T04:31:10.492Z,18.52
2018-09-12T04:33:39.637Z,18.64
2018-09-12T04:38:39.168Z,18.63
2018-09-12T04:41:05.781Z,18.63
2018-09-12T04:43:32.523Z,18.58
2018-09-12T04:48:31.168Z,18.64
2018-09-12T04:50:58.590Z,18.86
2018-09-12T04:53:25.786Z,18.83
2018-09-12T04:55:53.230Z,18.72
2018-09-12T04:58:20.226Z,19.07
2018-09-12T05:00:47.759Z,19.29
2018-09-12T05:03:14.902Z,19.28
2018-09-12T05:05:41.464Z,19.13
2018-09-12T05:08:07.976Z,18.97
2018-09-12T05:10:34.993Z,19.21
2018-09-12T05:13:01.636Z,19.15
2018-09-12T05:15:29.164Z,19.30
2018-09-12T05:17:55.859Z,19.42
2018-09-12T05:20:22.511Z,19.78
2018-09-12T05:22:49.505Z,19.82
2018-09-12T05:25:16.631Z,19.74
2018-09-12T05:27:44.933Z,19.78
2018-09-12T05:30:11.687Z,19.96
2018-09-12T05:32:39.999Z,20.13
2018-09-12T05:35:07.969Z,19.98
2018-09-12T05:37:34.651Z,20.07
2018-09-12T05:40:01.662Z,20.44
2018-09-12T05:42:28.439Z,20.26
2018-09-12T05:44:55.113Z,20.40
2018-09-12T05:47:23.100Z,20.97
2018-09-12T05:49:49.689Z,20.95
2018-09-12T05:52:17.105Z,20.97
2018-09-12T05:54:46.071Z,21.17
2018-09-12T05:57:12.875Z,21.28
2018-09-12T05:59:39.547Z,21.59
2018-09-12T06:02:06.317Z,21.80
2018-09-12T06:04:33.523Z,22.01
2018-09-12T06:07:01.243Z,22.10
2018-09-12T06:09:29.560Z,22.36
2018-09-12T06:11:56.304Z,22.57
2018-09-12T06:14:22.885Z,22.83
2018-09-12T06:16:49.540Z,22.76
2018-09-12T06:19:16.752Z,22.94
2018-09-12T06:21:43.323Z,23.11
2018-09-12T06:24:12.979Z,23.09
2018-09-12T06:26:39.880Z,23.21
2018-09-12T06:29:06.558Z,23.40
2018-09-12T06:31:36.412Z,23.45
2018-09-12T06:34:02.954Z,23.56
2018-09-12T06:36:35.573Z,23.59
2018-09-12T06:41:35.727Z,24.08
2018-09-12T06:44:02.395Z,23.93
2018-09-12T06:46:31.723Z,24.22
2018-09-12T06:51:30.098Z,24.15
2018-09-12T06:53:57.524Z,24.27
2018-09-12T06:56:24.192Z,24.31
2018-09-12T06:58:51.312Z,24.40
2018-09-12T07:01:17.935Z,24.50
2018-09-12T07:03:45.740Z,24.77
2018-09-12T07:06:12.356Z,24.97
2018-09-12T07:08:40.006Z,24.74
2018-09-12T07:11:11.156Z,25.08
2018-09-12T07:13:39.715Z,25.10
2018-09-12T07:16:07.968Z,24.88
2018-09-12T07:18:35.675Z,25.01
2018-09-12T07:23:34.554Z,25.25
2018-09-12T07:26:01.530Z,25.40
2018-09-12T07:28:28.860Z,25.60
2018-09-12T07:30:55.709Z,25.79
2018-09-12T07:33:22.342Z,25.76
2018-09-12T07:40:53.307Z,25.93
2018-09-12T07:43:20.351Z,26.01
2018-09-12T07:45:47.011Z,25.98
2018-09-12T07:50:46.892Z,26.04
2018-09-12T07:53:16.435Z,26.10
2018-09-12T07:55:44.088Z,26.16
2018-09-12T07:58:11.549Z,26.45
2018-09-12T08:00:39.816Z,26.42
2018-09-12T08:03:06.666Z,26.50
2018-09-12T08:05:33.433Z,26.54
2018-09-12T08:08:00.096Z,26.47
2018-09-12T08:10:26.716Z,26.71
2018-09-12T08:12:53.766Z,26.77
2018-09-12T08:15:21.647Z,27.04
2018-09-12T08:17:49.503Z,27.30
2018-09-12T08:20:16.097Z,27.49
2018-09-12T08:22:42.741Z,27.59
2018-09-12T08:25:12.465Z,27.64
2018-09-12T08:27:48.420Z,27.45
2018-09-12T08:30:15.085Z,27.84
2018-09-12T08:32:46.422Z,27.99
2018-09-12T08:35:16.953Z,27.95
2018-09-12T08:37:43.450Z,28.11
2018-09-12T08:42:45.583Z,28.21
2018-09-12T08:45:16.814Z,28.56
2018-09-12T08:47:49.785Z,28.74
2018-09-12T08:50:21.691Z,28.76
2018-09-12T08:52:48.510Z,28.59
2018-09-12T08:55:21.297Z,28.55
2018-09-12T08:57:57.571Z,28.88
2018-09-12T09:00:25.089Z,29.20
2018-09-12T09:02:58.040Z,29.30
2018-09-12T09:05:24.703Z,29.50
2018-09-12T09:07:52.126Z,29.25
2018-09-12T09:12:52.015Z,29.84
2018-09-12T09:15:18.660Z,29.73
2018-09-12T09:17:46.108Z,29.91
2018-09-12T09:20:12.773Z,29.72
2018-09-12T09:22:40.044Z,30.37
2018-09-12T09:25:09.935Z,30.52
2018-09-12T09:27:36.673Z,30.88
2018-09-12T09:30:03.325Z,31.13
2018-09-12T09:32:37.112Z,31.42
2018-09-12T09:35:05.438Z,31.65
2018-09-12T09:37:33.047Z,31.13
2018-09-12T09:40:04.925Z,31.39
2018-09-12T09:42:34.929Z,31.65
2018-09-12T09:45:03.953Z,31.96
2018-09-12T09:50:07.530Z,32.12
2018-09-12T09:52:34.940Z,32.29
2018-09-12T09:55:01.638Z,32.01
2018-09-12T09:57:29.118Z,31.96
2018-09-12T10:00:03.169Z,32.13
2018-09-12T10:05:12.878Z,32.25
2018-09-12T10:07:45.519Z,32.83
2018-09-12T10:10:12.005Z,32.40
2018-09-12T10:12:45.584Z,32.10
2018-09-12T10:17:50.450Z,33.06
2018-09-12T10:20:21.266Z,33.11
2018-09-12T10:22:47.831Z,33.26
2018-09-12T10:25:21.401Z,33.57
2018-09-12T10:27:48.307Z,33.96
2018-09-12T10:30:17.441Z,34.06
2018-09-12T10:32:47.055Z,33.79
2018-09-12T10:35:22.618Z,33.45
2018-09-12T10:37:56.896Z,33.52
2018-09-12T10:40:23.584Z,33.64
2018-09-12T10:42:51.536Z,33.81
2018-09-12T10:45:18.918Z,33.01
2018-09-12T10:47:46.135Z,32.78
2018-09-12T10:50:21.777Z,33.56
2018-09-12T10:52:48.417Z,34.06
2018-09-12T10:55:22.175Z,34.38
2018-09-12T10:57:48.943Z,34.33
2018-09-12T11:00:15.532Z,34.23
2018-09-12T11:02:49.879Z,33.89
2018-09-12T11:05:16.576Z,34.36
2018-09-12T11:07:53.104Z,34.73
2018-09-12T11:10:24.206Z,34.91
2018-09-12T11:12:51.826Z,34.76
2018-09-12T11:15:18.355Z,34.67
2018-09-12T11:17:45.141Z,34.88
2018-09-12T11:20:12.385Z,34.67
2018-09-12T11:22:43.977Z,35.24
2018-09-12T11:25:20.021Z,34.90
2018-09-12T11:27:48.082Z,34.16
2018-09-12T11:30:14.715Z,33.74
2018-09-12T11:35:19.207Z,34.67
2018-09-12T11:37:46.446Z,34.92
2018-09-12T11:45:49.113Z,34.85
2018-09-12T11:51:00.599Z,35.37
2018-09-12T11:53:31.869Z,35.37
2018-09-12T11:56:02.416Z,35.33
2018-09-12T11:58:39.054Z,35.32
2018-09-12T12:01:13.994Z,35.64
2018-09-12T12:03:40.664Z,35.47
2018-09-12T12:06:10.395Z,35.11
2018-09-12T12:08:47.318Z,34.81
2018-09-12T12:11:14.029Z,34.61
2018-09-12T12:13:42.567Z,34.72
2018-09-12T12:16:13.882Z,34.98
2018-09-12T12:18:41.825Z,35.16
2018-09-12T12:21:08.837Z,35.33
2018-09-12T12:23:35.585Z,35.73
2018-09-12T12:26:03.320Z,35.96
2018-09-12T12:28:30.619Z,35.34
2018-09-12T12:30:57.214Z,35.65
2018-09-12T12:35:56.224Z,35.38
2018-09-12T12:41:08.422Z,36.06
2018-09-12T12:43:34.923Z,36.14
2018-09-12T12:46:01.774Z,36.64
2018-09-12T12:48:28.297Z,36.25
2018-09-12T12:56:12.124Z,35.17
2018-09-12T13:01:10.253Z,35.74
2018-09-12T13:03:45.635Z,35.86
2018-09-12T13:06:12.296Z,35.93
2018-09-12T13:08:38.756Z,36.36
2018-09-12T13:11:05.212Z,36.65
2018-09-12T13:13:31.822Z,36.36
2018-09-12T13:16:02.944Z,36.45
2018-09-12T13:18:30.414Z,36.57
2018-09-12T13:21:03.532Z,36.30
2018-09-12T13:23:30.101Z,35.90
2018-09-12T13:26:01.366Z,36.54
2018-09-12T13:31:10.305Z,35.90
2018-09-12T13:33:37.095Z,36.16
2018-09-12T13:36:03.543Z,36.21
2018-09-12T13:43:57.253Z,35.93
2018-09-12T13:46:23.753Z,35.74
2018-09-12T13:48:57.909Z,35.68
2018-09-12T13:51:24.436Z,35.93
2018-09-12T13:54:00.316Z,36.18
2018-09-12T14:09:25.862Z,35.46
2018-09-12T14:11:57.678Z,35.64
2018-09-12T14:14:25.426Z,35.13
2018-09-12T14:19:34.868Z,35.58
2018-09-12T14:22:10.537Z,35.58
2018-09-12T14:24:38.830Z,35.30
2018-09-12T14:27:05.391Z,35.58
2018-09-12T14:29:32.010Z,35.86
2018-09-12T14:31:58.708Z,36.27
2018-09-12T14:34:26.165Z,36.40
2018-09-12T14:36:52.687Z,36.53
2018-09-12T14:41:52.749Z,36.55
2018-09-12T14:44:24.791Z,36.13
2018-09-12T14:46:51.395Z,35.93
2018-09-12T14:49:18.830Z,36.02
2018-09-12T14:51:46.963Z,35.72
2018-09-12T14:56:50.384Z,35.12
2018-09-12T14:59:17.707Z,34.90
2018-09-12T15:01:44.414Z,35.44
2018-09-12T15:07:03.904Z,35.92
2018-09-12T15:12:10.926Z,35.77
2018-09-12T15:19:54.042Z,36.06
2018-09-12T15:22:20.672Z,35.86
2018-09-12T15:27:19.018Z,35.74
2018-09-12T15:29:46.913Z,35.81
2018-09-12T15:32:13.520Z,35.53
2018-09-12T15:34:40.248Z,35.14
2018-09-12T15:37:07.004Z,34.65
2018-09-12T15:39:34.614Z,34.61
2018-09-12T15:42:01.780Z,34.36
2018-09-12T15:44:29.334Z,34.06
2018-09-12T15:46:55.999Z,34.25
2018-09-12T15:52:06.152Z,34.40
2018-09-12T15:57:45.177Z,34.76
2018-09-12T16:02:44.667Z,34.95
2018-09-12T16:05:13.079Z,34.94
2018-09-12T16:07:39.681Z,34.79
2018-09-12T16:12:38.986Z,34.99
2018-09-12T16:15:06.504Z,34.59
2018-09-12T16:17:33.419Z,34.43
2018-09-12T16:20:00.126Z,33.83
2018-09-12T16:24:58.974Z,33.57
2018-09-12T16:27:25.773Z,33.42
2018-09-12T16:29:54.274Z,33.05
2018-09-12T16:32:20.893Z,32.68
2018-09-12T16:37:19.095Z,32.26
2018-09-12T16:39:45.583Z,32.30
2018-09-12T16:42:12.170Z,32.17
2018-09-12T16:52:35.446Z,31.05
2018-09-12T16:55:02.071Z,31.12
2018-09-12T16:57:28.554Z,30.96
2018-09-12T17:00:02.662Z,30.67
2018-09-12T17:02:29.445Z,30.29
2018-09-12T17:04:59.479Z,30.18
2018-09-12T17:07:28.914Z,30.20
2018-09-12T17:09:55.572Z,30.07
2018-09-12T17:12:22.887Z,29.92
2018-09-12T17:17:27.519Z,29.39
2018-09-12T17:19:54.209Z,29.52
2018-09-12T17:22:26.068Z,29.31
2018-09-12T17:24:57.204Z,29.23
2018-09-12T17:29:59.947Z,29.03
2018-09-12T17:32:27.364Z,28.77
2018-09-12T17:34:59.944Z,28.60
2018-09-12T17:37:27.356Z,28.35
2018-09-12T17:39:54.184Z,28.33
2018-09-12T17:42:22.700Z,28.32
2018-09-12T17:44:51.815Z,28.27
2018-09-12T17:47:18.402Z,28.38
2018-09-12T17:49:45.037Z,28.29
2018-09-12T17:52:12.197Z,28.21
2018-09-12T17:54:38.883Z,28.08
2018-09-12T17:57:07.784Z,27.91
2018-09-12T17:59:39.507Z,27.77
2018-09-12T18:02:11.410Z,27.82
2018-09-12T18:04:41.803Z,27.49
2018-09-12T18:07:11.464Z,27.36
2018-09-12T18:09:42.128Z,27.22
2018-09-12T18:12:08.783Z,27.01
2018-09-12T18:14:36.647Z,26.96
2018-09-12T18:17:08.477Z,26.94
2018-09-12T18:19:40.398Z,26.91
2018-09-12T18:22:11.350Z,26.87
2018-09-12T18:27:11.099Z,26.71
2018-09-12T18:29:38.410Z,26.72
2018-09-12T18:37:13.756Z,26.31
2018-09-12T18:39:40.619Z,26.30
2018-09-12T18:42:07.376Z,26.57
2018-09-12T18:44:35.595Z,26.55
2018-09-12T18:47:04.911Z,26.59
2018-09-12T18:49:36.154Z,26.57
2018-09-12T18:52:02.735Z,26.42
2018-09-12T18:54:30.194Z,26.16
2018-09-12T18:56:56.791Z,26.14
2018-09-12T19:01:59.913Z,25.78
2018-09-12T19:04:28.932Z,25.55
2018-09-12T19:06:56.531Z,25.91
2018-09-12T19:09:23.262Z,26.20
2018-09-12T19:11:50.286Z,26.11
2018-09-12T19:14:21.424Z,25.82
2018-09-12T19:16:49.236Z,25.59
2018-09-12T19:19:20.646Z,25.50
2018-09-12T19:21:47.586Z,25.37
2018-09-12T19:26:52.960Z,25.02
2018-09-12T19:29:22.385Z,24.93
2018-09-12T19:31:52.388Z,25.16
2018-09-12T19:34:20.710Z,25.23
2018-09-12T19:36:48.409Z,25.18
2018-09-12T19:39:15.969Z,25.12
2018-09-12T19:41:45.054Z,25.08
2018-09-12T19:44:11.703Z,25.08
2018-09-12T19:46:39.291Z,25.08
2018-09-12T19:49:08.244Z,25.01
2018-09-12T19:51:34.958Z,24.89
2018-09-12T19:54:03.892Z,24.58
2018-09-12T19:56:30.679Z,24.76
2018-09-12T19:58:57.304Z,24.80
2018-09-12T20:01:24.332Z,24.56
2018-09-12T20:03:51.795Z,24.53
2018-09-12T20:06:19.967Z,24.48
2018-09-12T20:08:47.159Z,24.60
2018-09-12T20:13:49.362Z,24.37
2018-09-12T20:16:15.947Z,24.44
2018-09-12T20:18:43.298Z,24.29
2018-09-12T20:21:11.113Z,24.29
2018-09-12T20:23:37.883Z,24.50
2018-09-12T20:26:07.497Z,24.53
2018-09-12T20:28:34.103Z,24.46
2018-09-12T20:31:02.176Z,24.49
2018-09-12T20:33:28.775Z,24.37
2018-09-12T20:38:28.450Z,24.21
2018-09-12T20:40:56.633Z,24.15
2018-09-12T20:43:23.272Z,24.09
2018-09-12T20:48:25.854Z,23.95
2018-09-12T20:50:52.583Z,23.90
2018-09-12T20:53:20.886Z,23.91
2018-09-12T20:55:50.420Z,23.91
2018-09-12T20:58:18.121Z,24.13
2018-09-12T21:00:45.423Z,24.10
2018-09-12T21:03:14.869Z,24.13
2018-09-12T21:05:42.194Z,24.03
2018-09-12T21:08:09.716Z,24.04
2018-09-12T21:10:40.245Z,23.94
2018-09-12T21:15:39.464Z,23.71
2018-09-12T21:18:07.083Z,23.69
2018-09-12T21:20:39.980Z,23.70
2018-09-12T21:23:07.426Z,23.55
2018-09-12T21:25:35.021Z,23.51
2018-09-12T21:28:03.603Z,23.54
2018-09-12T21:30:31.186Z,23.61
2018-09-12T21:33:01.471Z,23.46
2018-09-12T21:35:29.632Z,23.45
2018-09-12T21:37:57.022Z,23.46
2018-09-12T21:40:25.948Z,23.40
2018-09-12T21:42:54.351Z,23.45
2018-09-12T21:45:21.115Z,23.42
2018-09-12T21:47:50.220Z,23.23
2018-09-12T21:50:16.885Z,23.16
2018-09-12T21:52:43.433Z,23.25
2018-09-12T21:55:13.436Z,23.31
2018-09-12T21:57:39.993Z,23.33
2018-09-12T22:00:11.487Z,23.34
2018-09-12T22:02:41.758Z,23.07
2018-09-12T22:07:41.852Z,23.02
2018-09-12T22:10:08.744Z,23.15
2018-09-12T22:12:35.490Z,23.10
2018-09-12T22:15:02.059Z,23.09
2018-09-12T22:17:30.640Z,23.03
2018-09-12T22:19:57.511Z,22.95
2018-09-12T22:22:24.527Z,22.96
2018-09-12T22:24:51.934Z,22.92
2018-09-12T22:27:18.769Z,22.87
2018-09-12T22:29:45.428Z,22.87
2018-09-12T22:32:12.757Z,22.91
2018-09-12T22:34:41.225Z,22.70
2018-09-12T22:37:08.360Z,22.76
2018-09-12T22:39:36.286Z,22.75
2018-09-12T22:42:03.654Z,22.60
2018-09-12T22:44:31.006Z,22.34
2018-09-12T22:46:59.722Z,22.61
2018-09-12T22:49:29.060Z,22.73
2018-09-12T22:51:56.832Z,22.69
2018-09-12T22:54:25.013Z,22.67
2018-09-12T22:56:51.775Z,22.74
2018-09-12T22:59:19.312Z,22.57
2018-09-12T23:01:45.998Z,22.66
2018-09-12T23:04:12.778Z,22.75
2018-09-12T23:06:39.442Z,22.47
2018-09-12T23:09:06.245Z,22.49
2018-09-12T23:11:32.821Z,22.44
2018-09-12T23:13:59.858Z,22.33
2018-09-12T23:16:28.091Z,22.01
2018-09-12T23:18:54.771Z,22.20
2018-09-12T23:21:21.826Z,22.26
2018-09-12T23:23:48.399Z,22.44
2018-09-12T23:26:15.708Z,22.51
2018-09-12T23:31:14.806Z,22.34
2018-09-12T23:33:41.482Z,22.33
2018-09-12T23:36:09.077Z,22.29
2018-09-12T23:38:37.102Z,22.25
2018-09-12T23:41:03.968Z,22.27
2018-09-12T23:43:30.711Z,22.10
2018-09-12T23:45:58.156Z,22.18
2018-09-12T23:48:24.690Z,22.29
2018-09-12T23:50:51.549Z,22.46
2018-09-12T23:55:52.863Z,22.35
2018-09-12T23:58:19.698Z,22.44
